sensor_id;sensor_type;location;lat;lon;timestamp;temperature;humidity
5457;DHT22;2751;49.802;9.944;2022-12-16T00:00:35;-0.80;99.90
5457;DHT22;2751;49.802;9.944;2022-12-16T00:03:02;-0.80;99.90
5457;DHT22;2751;49.802;9.944;2022-12-16T00:05:29;-0.80;99.90
5457;DHT22;2751;49.802;9.944;2022-12-16T00:07:56;-0.80;99.90
5457;DHT22;2751;49.802;9.944;2022-12-16T00:10:24;-0.80;99.90
5457;DHT22;2751;49.802;9.944;2022-12-16T00:13:11;-0.70;99.90
5457;DHT22;2751;49.802;9.944;2022-12-16T00:15:38;-0.70;99.90
5457;DHT22;2751;49.802;9.944;2022-12-16T00:18:05;-0.70;99.90
5457;DHT22;2751;49.802;9.944;2022-12-16T00:20:32;-0.30;99.90
5457;DHT22;2751;49.802;9.944;2022-12-16T00:22:59;-0.50;99.90
5457;DHT22;2751;49.802;9.944;2022-12-16T00:25:27;-0.40;99.90
5457;DHT22;2751;49.802;9.944;2022-12-16T00:27:54;-0.60;99.90
5457;DHT22;2751;49.802;9.944;2022-12-16T00:30:21;-0.60;99.90
5457;DHT22;2751;49.802;9.944;2022-12-16T00:32:47;-0.60;99.90
5457;DHT22;2751;49.802;9.944;2022-12-16T00:35:14;-0.60;99.90
5457;DHT22;2751;49.802;9.944;2022-12-16T00:37:41;-0.60;99.90
5457;DHT22;2751;49.802;9.944;2022-12-16T00:40:09;-0.10;99.90
5457;DHT22;2751;49.802;9.944;2022-12-16T00:42:38;-0.60;99.90
5457;DHT22;2751;49.802;9.944;2022-12-16T00:45:05;-0.10;99.90
5457;DHT22;2751;49.802;9.944;2022-12-16T00:47:33;-0.50;99.90
5457;DHT22;2751;49.802;9.944;2022-12-16T00:50:00;-0.60;99.90
5457;DHT22;2751;49.802;9.944;2022-12-16T00:52:27;-0.60;99.90
5457;DHT22;2751;49.802;9.944;2022-12-16T00:54:54;-0.60;99.90
5457;DHT22;2751;49.802;9.944;2022-12-16T00:57:21;-0.60;99.90
5457;DHT22;2751;49.802;9.944;2022-12-16T00:59:49;-0.60;99.90
5457;DHT22;2751;49.802;9.944;2022-12-16T01:02:16;-0.70;99.90
5457;DHT22;2751;49.802;9.944;2022-12-16T01:04:43;-0.70;99.90
5457;DHT22;2751;49.802;9.944;2022-12-16T01:07:10;-0.70;99.90
5457;DHT22;2751;49.802;9.944;2022-12-16T01:09:37;-0.70;99.90
5457;DHT22;2751;49.802;9.944;2022-12-16T01:12:04;-0.40;99.90
5457;DHT22;2751;49.802;9.944;2022-12-16T01:14:32;-0.70;99.90
5457;DHT22;2751;49.802;9.944;2022-12-16T01:17:00;-0.80;99.90
5457;DHT22;2751;49.802;9.944;2022-12-16T01:19:27;-0.80;99.90
5457;DHT22;2751;49.802;9.944;2022-12-16T01:21:53;-0.80;99.90
5457;DHT22;2751;49.802;9.944;2022-12-16T01:24:20;-0.80;99.90
5457;DHT22;2751;49.802;9.944;2022-12-16T01:26:47;-0.80;99.90
5457;DHT22;2751;49.802;9.944;2022-12-16T01:29:14;-0.40;99.90
5457;DHT22;2751;49.802;9.944;2022-12-16T01:31:41;-0.60;99.90
5457;DHT22;2751;49.802;9.944;2022-12-16T01:34:09;-0.70;99.90
5457;DHT22;2751;49.802;9.944;2022-12-16T01:36:36;-0.70;99.90
5457;DHT22;2751;49.802;9.944;2022-12-16T01:39:03;-0.40;99.90
5457;DHT22;2751;49.802;9.944;2022-12-16T01:41:30;-0.70;99.90
5457;DHT22;2751;49.802;9.944;2022-12-16T01:44:12;-0.50;99.90
5457;DHT22;2751;49.802;9.944;2022-12-16T01:46:39;-0.70;99.90
5457;DHT22;2751;49.802;9.944;2022-12-16T01:49:20;-0.70;99.90
5457;DHT22;2751;49.802;9.944;2022-12-16T01:51:49;-0.80;99.90
5457;DHT22;2751;49.802;9.944;2022-12-16T01:54:23;-0.80;99.90
5457;DHT22;2751;49.802;9.944;2022-12-16T01:56:55;-0.70;99.90
5457;DHT22;2751;49.802;9.944;2022-12-16T01:59:24;-0.70;99.90
5457;DHT22;2751;49.802;9.944;2022-12-16T02:01:51;-0.70;99.90
5457;DHT22;2751;49.802;9.944;2022-12-16T02:04:20;-0.70;99.90
5457;DHT22;2751;49.802;9.944;2022-12-16T02:06:47;-0.60;99.90
5457;DHT22;2751;49.802;9.944;2022-12-16T02:09:15;-0.80;99.90
5457;DHT22;2751;49.802;9.944;2022-12-16T02:12:02;-0.80;99.90
5457;DHT22;2751;49.802;9.944;2022-12-16T02:14:51;-0.80;99.90
5457;DHT22;2751;49.802;9.944;2022-12-16T02:17:26;-0.80;99.90
5457;DHT22;2751;49.802;9.944;2022-12-16T02:20:27;-0.80;99.90
5457;DHT22;2751;49.802;9.944;2022-12-16T02:23:18;-0.80;99.90
5457;DHT22;2751;49.802;9.944;2022-12-16T02:29:12;-0.70;99.90
5457;DHT22;2751;49.802;9.944;2022-12-16T02:31:49;-0.70;99.90
5457;DHT22;2751;49.802;9.944;2022-12-16T02:34:20;-0.70;99.90
5457;DHT22;2751;49.802;9.944;2022-12-16T02:37:00;-0.70;99.90
5457;DHT22;2751;49.802;9.944;2022-12-16T02:39:35;-0.30;99.90
5457;DHT22;2751;49.802;9.944;2022-12-16T02:42:10;-0.70;99.90
5457;DHT22;2751;49.802;9.944;2022-12-16T02:44:42;-0.70;99.90
5457;DHT22;2751;49.802;9.944;2022-12-16T02:47:11;-0.70;99.90
5457;DHT22;2751;49.802;9.944;2022-12-16T02:49:45;-0.70;99.90
5457;DHT22;2751;49.802;9.944;2022-12-16T02:52:13;-0.70;99.90
5457;DHT22;2751;49.802;9.944;2022-12-16T02:54:40;-0.70;99.90
5457;DHT22;2751;49.802;9.944;2022-12-16T02:57:16;-0.70;99.90
5457;DHT22;2751;49.802;9.944;2022-12-16T02:59:53;-0.70;99.90
5457;DHT22;2751;49.802;9.944;2022-12-16T03:02:29;-0.60;99.90
5457;DHT22;2751;49.802;9.944;2022-12-16T03:05:05;-0.50;99.90
5457;DHT22;2751;49.802;9.944;2022-12-16T03:07:35;-0.40;99.90
5457;DHT22;2751;49.802;9.944;2022-12-16T03:10:09;-0.30;99.90
5457;DHT22;2751;49.802;9.944;2022-12-16T03:12:39;-0.20;99.90
5457;DHT22;2751;49.802;9.944;2022-12-16T03:15:09;-0.20;99.90
5457;DHT22;2751;49.802;9.944;2022-12-16T03:17:38;-0.10;99.90
5457;DHT22;2751;49.802;9.944;2022-12-16T03:20:09;-0.10;99.90
5457;DHT22;2751;49.802;9.944;2022-12-16T03:22:40;0.00;99.90
5457;DHT22;2751;49.802;9.944;2022-12-16T03:25:08;0.00;99.90
5457;DHT22;2751;49.802;9.944;2022-12-16T03:27:43;0.10;99.90
5457;DHT22;2751;49.802;9.944;2022-12-16T03:30:15;0.10;99.90
5457;DHT22;2751;49.802;9.944;2022-12-16T03:32:47;0.20;99.90
5457;DHT22;2751;49.802;9.944;2022-12-16T03:35:21;0.20;99.90
5457;DHT22;2751;49.802;9.944;2022-12-16T03:37:50;0.60;99.90
5457;DHT22;2751;49.802;9.944;2022-12-16T03:40:19;0.50;99.90
5457;DHT22;2751;49.802;9.944;2022-12-16T03:42:47;0.10;99.90
5457;DHT22;2751;49.802;9.944;2022-12-16T03:45:17;0.20;99.90
5457;DHT22;2751;49.802;9.944;2022-12-16T03:47:49;0.20;99.90
5457;DHT22;2751;49.802;9.944;2022-12-16T03:50:17;0.10;99.90
5457;DHT22;2751;49.802;9.944;2022-12-16T03:52:45;0.00;99.90
5457;DHT22;2751;49.802;9.944;2022-12-16T03:55:14;0.30;99.90
5457;DHT22;2751;49.802;9.944;2022-12-16T03:57:41;0.00;99.90
5457;DHT22;2751;49.802;9.944;2022-12-16T04:00:09;-0.10;99.90
5457;DHT22;2751;49.802;9.944;2022-12-16T04:02:36;-0.10;99.90
5457;DHT22;2751;49.802;9.944;2022-12-16T04:05:04;-0.10;99.90
5457;DHT22;2751;49.802;9.944;2022-12-16T04:07:32;-0.10;99.90
5457;DHT22;2751;49.802;9.944;2022-12-16T04:09:58;-0.10;99.90
5457;DHT22;2751;49.802;9.944;2022-12-16T04:12:25;-0.10;99.90
5457;DHT22;2751;49.802;9.944;2022-12-16T04:15:10;-0.20;99.90
5457;DHT22;2751;49.802;9.944;2022-12-16T04:17:54;-0.10;99.90
5457;DHT22;2751;49.802;9.944;2022-12-16T04:20:43;-0.20;99.90
5457;DHT22;2751;49.802;9.944;2022-12-16T04:23:29;-0.20;99.90
5457;DHT22;2751;49.802;9.944;2022-12-16T04:26:15;-0.30;99.90
5457;DHT22;2751;49.802;9.944;2022-12-16T04:28:42;-0.20;99.90
5457;DHT22;2751;49.802;9.944;2022-12-16T04:31:09;0.10;99.90
5457;DHT22;2751;49.802;9.944;2022-12-16T04:33:37;-0.30;99.90
5457;DHT22;2751;49.802;9.944;2022-12-16T04:36:22;-0.40;99.90
5457;DHT22;2751;49.802;9.944;2022-12-16T04:39:07;-0.20;99.90
5457;DHT22;2751;49.802;9.944;2022-12-16T04:41:51;-0.40;99.90
5457;DHT22;2751;49.802;9.944;2022-12-16T04:44:35;-0.40;99.90
5457;DHT22;2751;49.802;9.944;2022-12-16T04:47:20;-0.40;99.90
5457;DHT22;2751;49.802;9.944;2022-12-16T04:50:04;-0.50;99.90
5457;DHT22;2751;49.802;9.944;2022-12-16T04:52:51;-0.40;99.90
5457;DHT22;2751;49.802;9.944;2022-12-16T04:55:35;-0.50;99.90
5457;DHT22;2751;49.802;9.944;2022-12-16T04:58:19;-0.60;99.90
5457;DHT22;2751;49.802;9.944;2022-12-16T05:01:07;-0.70;99.90
5457;DHT22;2751;49.802;9.944;2022-12-16T05:03:51;-0.80;99.90
5457;DHT22;2751;49.802;9.944;2022-12-16T05:06:35;-1.00;99.90
5457;DHT22;2751;49.802;9.944;2022-12-16T05:09:21;-1.00;99.90
5457;DHT22;2751;49.802;9.944;2022-12-16T05:12:05;-1.00;99.90
5457;DHT22;2751;49.802;9.944;2022-12-16T05:14:49;-1.00;99.90
5457;DHT22;2751;49.802;9.944;2022-12-16T05:17:33;-1.00;99.90
5457;DHT22;2751;49.802;9.944;2022-12-16T05:20:17;-1.00;99.90
5457;DHT22;2751;49.802;9.944;2022-12-16T05:23:02;-1.00;99.90
5457;DHT22;2751;49.802;9.944;2022-12-16T05:25:48;-1.10;99.90
5457;DHT22;2751;49.802;9.944;2022-12-16T05:28:32;-1.20;99.90
5457;DHT22;2751;49.802;9.944;2022-12-16T05:31:16;-1.50;99.90
5457;DHT22;2751;49.802;9.944;2022-12-16T05:34:00;-1.70;99.90
5457;DHT22;2751;49.802;9.944;2022-12-16T05:36:45;-1.80;99.90
5457;DHT22;2751;49.802;9.944;2022-12-16T05:39:29;-2.00;99.90
5457;DHT22;2751;49.802;9.944;2022-12-16T05:42:15;-2.10;99.90
5457;DHT22;2751;49.802;9.944;2022-12-16T05:44:59;-2.20;99.90
5457;DHT22;2751;49.802;9.944;2022-12-16T05:47:46;-2.20;99.90
5457;DHT22;2751;49.802;9.944;2022-12-16T05:50:31;-2.10;99.90
5457;DHT22;2751;49.802;9.944;2022-12-16T05:53:15;-2.20;99.90
5457;DHT22;2751;49.802;9.944;2022-12-16T05:55:56;-2.20;99.90
5457;DHT22;2751;49.802;9.944;2022-12-16T05:58:41;-2.40;99.90
5457;DHT22;2751;49.802;9.944;2022-12-16T06:01:26;-2.40;99.90
5457;DHT22;2751;49.802;9.944;2022-12-16T06:04:10;-2.10;99.90
5457;DHT22;2751;49.802;9.944;2022-12-16T06:06:54;-2.50;99.90
5457;DHT22;2751;49.802;9.944;2022-12-16T06:09:39;-2.70;99.90
5457;DHT22;2751;49.802;9.944;2022-12-16T06:12:23;-2.70;99.90
5457;DHT22;2751;49.802;9.944;2022-12-16T06:15:09;-2.80;99.90
5457;DHT22;2751;49.802;9.944;2022-12-16T06:17:53;-2.90;99.90
5457;DHT22;2751;49.802;9.944;2022-12-16T06:20:38;-3.00;99.90
5457;DHT22;2751;49.802;9.944;2022-12-16T06:23:22;-2.70;99.90
5457;DHT22;2751;49.802;9.944;2022-12-16T06:26:07;-3.20;99.90
5457;DHT22;2751;49.802;9.944;2022-12-16T06:28:51;-3.30;99.90
5457;DHT22;2751;49.802;9.944;2022-12-16T06:31:37;-3.30;99.90
5457;DHT22;2751;49.802;9.944;2022-12-16T06:34:21;-3.40;99.90
5457;DHT22;2751;49.802;9.944;2022-12-16T06:37:06;-3.20;99.90
5457;DHT22;2751;49.802;9.944;2022-12-16T06:39:50;-3.40;99.90
5457;DHT22;2751;49.802;9.944;2022-12-16T06:42:35;-3.50;99.90
5457;DHT22;2751;49.802;9.944;2022-12-16T06:45:21;-3.40;99.90
5457;DHT22;2751;49.802;9.944;2022-12-16T06:48:07;-3.70;99.90
5457;DHT22;2751;49.802;9.944;2022-12-16T06:50:51;-3.60;99.90
5457;DHT22;2751;49.802;9.944;2022-12-16T06:53:36;-3.70;99.90
5457;DHT22;2751;49.802;9.944;2022-12-16T06:56:20;-3.80;99.90
5457;DHT22;2751;49.802;9.944;2022-12-16T06:59:04;-3.70;99.90
5457;DHT22;2751;49.802;9.944;2022-12-16T07:01:49;-3.80;99.90
5457;DHT22;2751;49.802;9.944;2022-12-16T07:04:35;-3.80;99.90
5457;DHT22;2751;49.802;9.944;2022-12-16T07:07:19;-3.90;99.90
5457;DHT22;2751;49.802;9.944;2022-12-16T07:10:04;-3.90;99.90
5457;DHT22;2751;49.802;9.944;2022-12-16T07:12:48;-3.90;99.90
5457;DHT22;2751;49.802;9.944;2022-12-16T07:15:32;-4.00;99.90
5457;DHT22;2751;49.802;9.944;2022-12-16T07:18:17;-4.00;99.90
5457;DHT22;2751;49.802;9.944;2022-12-16T07:21:03;-4.00;99.90
5457;DHT22;2751;49.802;9.944;2022-12-16T07:23:50;-4.10;99.90
5457;DHT22;2751;49.802;9.944;2022-12-16T07:26:34;-4.10;99.90
5457;DHT22;2751;49.802;9.944;2022-12-16T07:29:18;-4.10;99.90
5457;DHT22;2751;49.802;9.944;2022-12-16T07:32:03;-4.20;99.90
5457;DHT22;2751;49.802;9.944;2022-12-16T07:34:47;-4.20;99.90
5457;DHT22;2751;49.802;9.944;2022-12-16T07:37:33;-4.20;99.90
5457;DHT22;2751;49.802;9.944;2022-12-16T07:40:17;-4.10;99.90
5457;DHT22;2751;49.802;9.944;2022-12-16T07:43:02;-4.10;99.90
5457;DHT22;2751;49.802;9.944;2022-12-16T07:45:46;-4.10;99.90
5457;DHT22;2751;49.802;9.944;2022-12-16T07:48:36;-4.10;99.90
5457;DHT22;2751;49.802;9.944;2022-12-16T07:51:20;-4.10;99.90
5457;DHT22;2751;49.802;9.944;2022-12-16T07:54:06;-4.20;99.90
5457;DHT22;2751;49.802;9.944;2022-12-16T07:56:51;-4.20;99.90
5457;DHT22;2751;49.802;9.944;2022-12-16T07:59:35;-4.20;99.90
5457;DHT22;2751;49.802;9.944;2022-12-16T08:02:19;-4.30;99.90
5457;DHT22;2751;49.802;9.944;2022-12-16T08:05:04;-4.20;99.90
5457;DHT22;2751;49.802;9.944;2022-12-16T08:07:48;-4.40;99.90
5457;DHT22;2751;49.802;9.944;2022-12-16T08:10:34;-4.50;99.90
5457;DHT22;2751;49.802;9.944;2022-12-16T08:13:18;-3.90;99.90
5457;DHT22;2751;49.802;9.944;2022-12-16T08:16:03;-4.40;99.90
5457;DHT22;2751;49.802;9.944;2022-12-16T08:18:47;-4.40;99.90
5457;DHT22;2751;49.802;9.944;2022-12-16T08:21:31;-4.30;99.90
5457;DHT22;2751;49.802;9.944;2022-12-16T08:24:15;-4.30;99.90
5457;DHT22;2751;49.802;9.944;2022-12-16T08:27:25;-4.30;99.90
5457;DHT22;2751;49.802;9.944;2022-12-16T08:30:13;-3.90;99.90
5457;DHT22;2751;49.802;9.944;2022-12-16T08:35:55;-4.20;99.90
5457;DHT22;2751;49.802;9.944;2022-12-16T08:40:14;-4.10;99.90
5457;DHT22;2751;49.802;9.944;2022-12-16T08:45:25;-4.40;99.90
5457;DHT22;2751;49.802;9.944;2022-12-16T08:48:09;-3.60;99.90
5457;DHT22;2751;49.802;9.944;2022-12-16T08:51:00;-4.10;99.90
5457;DHT22;2751;49.802;9.944;2022-12-16T08:53:44;-4.10;99.90
5457;DHT22;2751;49.802;9.944;2022-12-16T08:56:29;-3.60;99.90
5457;DHT22;2751;49.802;9.944;2022-12-16T08:59:13;-4.00;99.90
5457;DHT22;2751;49.802;9.944;2022-12-16T09:01:59;-4.00;99.90
5457;DHT22;2751;49.802;9.944;2022-12-16T09:04:44;-4.00;99.90
5457;DHT22;2751;49.802;9.944;2022-12-16T09:07:28;-3.90;99.90
5457;DHT22;2751;49.802;9.944;2022-12-16T09:10:12;-3.90;99.90
5457;DHT22;2751;49.802;9.944;2022-12-16T09:13:04;-3.90;99.90
5457;DHT22;2751;49.802;9.944;2022-12-16T09:15:49;-3.80;99.90
5457;DHT22;2751;49.802;9.944;2022-12-16T09:18:35;-3.60;99.90
5457;DHT22;2751;49.802;9.944;2022-12-16T09:21:19;-3.50;99.90
5457;DHT22;2751;49.802;9.944;2022-12-16T09:24:03;-3.70;99.90
5457;DHT22;2751;49.802;9.944;2022-12-16T09:26:57;-3.70;99.90
5457;DHT22;2751;49.802;9.944;2022-12-16T09:29:42;-3.60;99.90
5457;DHT22;2751;49.802;9.944;2022-12-16T09:32:26;-3.70;99.90
5457;DHT22;2751;49.802;9.944;2022-12-16T09:35:12;-3.70;99.90
5457;DHT22;2751;49.802;9.944;2022-12-16T09:37:56;-3.60;99.90
5457;DHT22;2751;49.802;9.944;2022-12-16T09:40:41;-3.50;99.90
5457;DHT22;2751;49.802;9.944;2022-12-16T09:43:36;-3.20;99.90
5457;DHT22;2751;49.802;9.944;2022-12-16T09:46:28;-3.30;99.90
5457;DHT22;2751;49.802;9.944;2022-12-16T09:49:23;-3.30;99.90
5457;DHT22;2751;49.802;9.944;2022-12-16T09:52:17;-3.20;99.90
5457;DHT22;2751;49.802;9.944;2022-12-16T09:55:05;-3.10;99.90
5457;DHT22;2751;49.802;9.944;2022-12-16T09:57:57;-2.90;99.90
5457;DHT22;2751;49.802;9.944;2022-12-16T10:00:42;-2.80;99.90
5457;DHT22;2751;49.802;9.944;2022-12-16T10:03:33;-2.70;99.90
5457;DHT22;2751;49.802;9.944;2022-12-16T10:06:29;-2.60;99.90
5457;DHT22;2751;49.802;9.944;2022-12-16T10:09:22;-2.40;99.90
5457;DHT22;2751;49.802;9.944;2022-12-16T10:12:15;-2.00;99.90
5457;DHT22;2751;49.802;9.944;2022-12-16T10:15:13;-1.80;99.90
5457;DHT22;2751;49.802;9.944;2022-12-16T10:18:09;-1.50;99.90
5457;DHT22;2751;49.802;9.944;2022-12-16T10:20:56;-1.20;99.90
5457;DHT22;2751;49.802;9.944;2022-12-16T10:23:46;-0.90;99.90
5457;DHT22;2751;49.802;9.944;2022-12-16T10:26:45;-0.40;99.90
5457;DHT22;2751;49.802;9.944;2022-12-16T10:29:29;-0.10;99.90
5457;DHT22;2751;49.802;9.944;2022-12-16T10:32:19;-0.40;99.90
5457;DHT22;2751;49.802;9.944;2022-12-16T10:35:18;-0.10;99.90
5457;DHT22;2751;49.802;9.944;2022-12-16T10:38:06;0.00;99.90
5457;DHT22;2751;49.802;9.944;2022-12-16T10:40:58;0.20;99.90
5457;DHT22;2751;49.802;9.944;2022-12-16T10:43:47;0.60;99.90
5457;DHT22;2751;49.802;9.944;2022-12-16T10:46:33;0.50;99.90
5457;DHT22;2751;49.802;9.944;2022-12-16T10:49:18;0.70;99.90
5457;DHT22;2751;49.802;9.944;2022-12-16T10:52:03;0.90;99.90
5457;DHT22;2751;49.802;9.944;2022-12-16T10:55:06;1.00;99.90
5457;DHT22;2751;49.802;9.944;2022-12-16T10:58:02;1.00;99.90
5457;DHT22;2751;49.802;9.944;2022-12-16T11:00:51;1.00;99.90
5457;DHT22;2751;49.802;9.944;2022-12-16T11:03:37;0.90;99.90
5457;DHT22;2751;49.802;9.944;2022-12-16T11:06:25;0.70;99.90
5457;DHT22;2751;49.802;9.944;2022-12-16T11:09:23;1.00;99.90
5457;DHT22;2751;49.802;9.944;2022-12-16T11:12:23;1.00;99.90
5457;DHT22;2751;49.802;9.944;2022-12-16T11:15:26;1.10;99.90
5457;DHT22;2751;49.802;9.944;2022-12-16T11:18:14;1.00;99.90
5457;DHT22;2751;49.802;9.944;2022-12-16T11:21:13;0.90;99.90
5457;DHT22;2751;49.802;9.944;2022-12-16T11:24:13;0.70;99.90
5457;DHT22;2751;49.802;9.944;2022-12-16T11:26:59;0.60;99.90
5457;DHT22;2751;49.802;9.944;2022-12-16T11:29:54;0.80;99.90
5457;DHT22;2751;49.802;9.944;2022-12-16T11:32:41;0.30;99.90
5457;DHT22;2751;49.802;9.944;2022-12-16T11:35:30;0.30;99.90
5457;DHT22;2751;49.802;9.944;2022-12-16T11:38:28;0.50;99.90
5457;DHT22;2751;49.802;9.944;2022-12-16T11:41:23;0.60;99.90
5457;DHT22;2751;49.802;9.944;2022-12-16T11:44:17;1.10;99.90
5457;DHT22;2751;49.802;9.944;2022-12-16T11:47:04;1.40;99.90
5457;DHT22;2751;49.802;9.944;2022-12-16T11:49:59;1.60;99.90
5457;DHT22;2751;49.802;9.944;2022-12-16T11:52:52;1.70;99.90
5457;DHT22;2751;49.802;9.944;2022-12-16T11:55:42;1.80;99.90
5457;DHT22;2751;49.802;9.944;2022-12-16T11:58:32;2.00;99.90
5457;DHT22;2751;49.802;9.944;2022-12-16T12:01:23;1.90;99.90
5457;DHT22;2751;49.802;9.944;2022-12-16T12:04:10;2.00;99.90
5457;DHT22;2751;49.802;9.944;2022-12-16T12:07:16;2.20;99.90
5457;DHT22;2751;49.802;9.944;2022-12-16T12:13:21;2.40;99.90
5457;DHT22;2751;49.802;9.944;2022-12-16T12:16:15;2.60;99.90
5457;DHT22;2751;49.802;9.944;2022-12-16T12:19:07;2.70;99.90
5457;DHT22;2751;49.802;9.944;2022-12-16T12:21:59;3.00;99.90
5457;DHT22;2751;49.802;9.944;2022-12-16T12:24:48;2.60;99.90
5457;DHT22;2751;49.802;9.944;2022-12-16T12:27:43;2.50;99.90
5457;DHT22;2751;49.802;9.944;2022-12-16T12:30:36;2.30;99.90
5457;DHT22;2751;49.802;9.944;2022-12-16T12:33:30;2.00;99.90
5457;DHT22;2751;49.802;9.944;2022-12-16T12:36:29;2.00;99.90
5457;DHT22;2751;49.802;9.944;2022-12-16T12:39:21;2.20;99.90
5457;DHT22;2751;49.802;9.944;2022-12-16T12:42:16;2.20;99.90
5457;DHT22;2751;49.802;9.944;2022-12-16T12:45:37;2.30;99.90
5457;DHT22;2751;49.802;9.944;2022-12-16T12:48:35;2.30;99.90
5457;DHT22;2751;49.802;9.944;2022-12-16T12:51:25;2.50;99.90
5457;DHT22;2751;49.802;9.944;2022-12-16T12:54:18;2.80;99.90
5457;DHT22;2751;49.802;9.944;2022-12-16T12:57:08;2.60;99.90
5457;DHT22;2751;49.802;9.944;2022-12-16T12:59:56;2.70;99.90
5457;DHT22;2751;49.802;9.944;2022-12-16T13:02:49;2.70;99.90
5457;DHT22;2751;49.802;9.944;2022-12-16T13:05:37;2.50;99.90
5457;DHT22;2751;49.802;9.944;2022-12-16T13:08:44;2.30;99.90
5457;DHT22;2751;49.802;9.944;2022-12-16T13:11:28;2.20;99.90
5457;DHT22;2751;49.802;9.944;2022-12-16T13:20:56;2.30;99.90
5457;DHT22;2751;49.802;9.944;2022-12-16T13:23:42;2.30;99.90
5457;DHT22;2751;49.802;9.944;2022-12-16T13:26:29;2.10;99.90
5457;DHT22;2751;49.802;9.944;2022-12-16T13:29:18;2.10;99.90
5457;DHT22;2751;49.802;9.944;2022-12-16T13:32:15;2.10;99.90
5457;DHT22;2751;49.802;9.944;2022-12-16T13:35:01;2.10;99.90
5457;DHT22;2751;49.802;9.944;2022-12-16T13:37:58;2.10;99.90
5457;DHT22;2751;49.802;9.944;2022-12-16T13:40:52;2.00;99.90
5457;DHT22;2751;49.802;9.944;2022-12-16T13:43:55;2.40;99.90
5457;DHT22;2751;49.802;9.944;2022-12-16T13:46:42;2.00;99.90
5457;DHT22;2751;49.802;9.944;2022-12-16T13:49:43;2.00;99.90
5457;DHT22;2751;49.802;9.944;2022-12-16T13:52:36;2.00;99.90
5457;DHT22;2751;49.802;9.944;2022-12-16T13:55:28;1.80;99.90
5457;DHT22;2751;49.802;9.944;2022-12-16T13:58:22;1.80;99.90
5457;DHT22;2751;49.802;9.944;2022-12-16T14:01:11;1.80;99.90
5457;DHT22;2751;49.802;9.944;2022-12-16T14:03:58;1.90;99.90
5457;DHT22;2751;49.802;9.944;2022-12-16T14:06:59;1.90;99.90
5457;DHT22;2751;49.802;9.944;2022-12-16T14:09:47;2.00;99.90
5457;DHT22;2751;49.802;9.944;2022-12-16T14:12:58;2.00;99.90
5457;DHT22;2751;49.802;9.944;2022-12-16T14:15:52;1.80;99.90
5457;DHT22;2751;49.802;9.944;2022-12-16T14:18:43;1.90;99.90
5457;DHT22;2751;49.802;9.944;2022-12-16T14:21:35;1.80;99.90
5457;DHT22;2751;49.802;9.944;2022-12-16T14:24:24;1.50;99.90
5457;DHT22;2751;49.802;9.944;2022-12-16T14:27:14;1.80;99.90
5457;DHT22;2751;49.802;9.944;2022-12-16T14:30:02;1.80;99.90
5457;DHT22;2751;49.802;9.944;2022-12-16T14:32:46;1.80;99.90
5457;DHT22;2751;49.802;9.944;2022-12-16T14:35:30;2.20;99.90
5457;DHT22;2751;49.802;9.944;2022-12-16T14:38:21;2.10;99.90
5457;DHT22;2751;49.802;9.944;2022-12-16T14:41:10;1.90;99.90
5457;DHT22;2751;49.802;9.944;2022-12-16T14:43:55;1.80;99.90
5457;DHT22;2751;49.802;9.944;2022-12-16T14:46:40;1.70;99.90
5457;DHT22;2751;49.802;9.944;2022-12-16T14:49:27;1.70;99.90
5457;DHT22;2751;49.802;9.944;2022-12-16T14:52:17;1.70;99.90
5457;DHT22;2751;49.802;9.944;2022-12-16T14:55:10;1.80;99.90
5457;DHT22;2751;49.802;9.944;2022-12-16T14:58:08;1.70;99.90
5457;DHT22;2751;49.802;9.944;2022-12-16T15:00:53;1.70;99.90
5457;DHT22;2751;49.802;9.944;2022-12-16T15:03:43;1.70;99.90
5457;DHT22;2751;49.802;9.944;2022-12-16T15:06:30;1.60;99.90
5457;DHT22;2751;49.802;9.944;2022-12-16T15:09:24;1.60;99.90
5457;DHT22;2751;49.802;9.944;2022-12-16T15:12:12;1.60;99.90
5457;DHT22;2751;49.802;9.944;2022-12-16T15:14:57;1.50;99.90
5457;DHT22;2751;49.802;9.944;2022-12-16T15:17:50;1.50;99.90
5457;DHT22;2751;49.802;9.944;2022-12-16T15:20:39;1.40;99.90
5457;DHT22;2751;49.802;9.944;2022-12-16T15:23:29;1.40;99.90
5457;DHT22;2751;49.802;9.944;2022-12-16T15:26:16;1.40;99.90
5457;DHT22;2751;49.802;9.944;2022-12-16T15:29:01;1.60;99.90
5457;DHT22;2751;49.802;9.944;2022-12-16T15:31:46;1.30;99.90
5457;DHT22;2751;49.802;9.944;2022-12-16T15:34:35;1.30;99.90
5457;DHT22;2751;49.802;9.944;2022-12-16T15:37:23;1.30;99.90
5457;DHT22;2751;49.802;9.944;2022-12-16T15:40:20;1.40;99.90
5457;DHT22;2751;49.802;9.944;2022-12-16T15:43:05;1.20;99.90
5457;DHT22;2751;49.802;9.944;2022-12-16T15:46:00;1.20;99.90
5457;DHT22;2751;49.802;9.944;2022-12-16T15:48:49;1.20;99.90
5457;DHT22;2751;49.802;9.944;2022-12-16T15:51:42;1.10;99.90
5457;DHT22;2751;49.802;9.944;2022-12-16T15:54:30;1.10;99.90
5457;DHT22;2751;49.802;9.944;2022-12-16T15:57:26;1.10;99.90
5457;DHT22;2751;49.802;9.944;2022-12-16T16:00:21;1.10;99.90
5457;DHT22;2751;49.802;9.944;2022-12-16T16:03:17;1.00;99.90
5457;DHT22;2751;49.802;9.944;2022-12-16T16:06:02;0.90;99.90
5457;DHT22;2751;49.802;9.944;2022-12-16T16:08:50;0.90;99.90
5457;DHT22;2751;49.802;9.944;2022-12-16T16:11:35;0.80;99.90
5457;DHT22;2751;49.802;9.944;2022-12-16T16:14:20;0.80;99.90
5457;DHT22;2751;49.802;9.944;2022-12-16T16:17:16;0.80;99.90
5457;DHT22;2751;49.802;9.944;2022-12-16T16:20:04;0.80;99.90
5457;DHT22;2751;49.802;9.944;2022-12-16T16:22:48;0.70;99.90
5457;DHT22;2751;49.802;9.944;2022-12-16T16:25:32;0.70;99.90
5457;DHT22;2751;49.802;9.944;2022-12-16T16:28:18;0.60;99.90
5457;DHT22;2751;49.802;9.944;2022-12-16T16:31:02;0.50;99.90
5457;DHT22;2751;49.802;9.944;2022-12-16T16:33:46;0.50;99.90
5457;DHT22;2751;49.802;9.944;2022-12-16T16:36:39;0.50;99.90
5457;DHT22;2751;49.802;9.944;2022-12-16T16:39:23;0.40;99.90
5457;DHT22;2751;49.802;9.944;2022-12-16T16:42:08;0.40;99.90
5457;DHT22;2751;49.802;9.944;2022-12-16T16:44:54;0.20;99.90
5457;DHT22;2751;49.802;9.944;2022-12-16T16:47:41;0.10;99.90
5457;DHT22;2751;49.802;9.944;2022-12-16T16:50:26;0.00;99.90
5457;DHT22;2751;49.802;9.944;2022-12-16T16:53:13;0.00;99.90
5457;DHT22;2751;49.802;9.944;2022-12-16T16:56:01;0.20;99.90
5457;DHT22;2751;49.802;9.944;2022-12-16T16:58:46;0.20;99.90
5457;DHT22;2751;49.802;9.944;2022-12-16T17:01:32;-0.30;99.90
5457;DHT22;2751;49.802;9.944;2022-12-16T17:04:16;-0.40;99.90
5457;DHT22;2751;49.802;9.944;2022-12-16T17:06:57;-0.40;99.90
5457;DHT22;2751;49.802;9.944;2022-12-16T17:09:42;-0.50;99.90
5457;DHT22;2751;49.802;9.944;2022-12-16T17:12:28;-0.60;99.90
5457;DHT22;2751;49.802;9.944;2022-12-16T17:15:15;-0.60;99.90
5457;DHT22;2751;49.802;9.944;2022-12-16T17:18:01;-0.70;99.90
5457;DHT22;2751;49.802;9.944;2022-12-16T17:20:46;-0.70;99.90
5457;DHT22;2751;49.802;9.944;2022-12-16T17:23:30;-0.80;99.90
5457;DHT22;2751;49.802;9.944;2022-12-16T17:26:15;-0.80;99.90
5457;DHT22;2751;49.802;9.944;2022-12-16T17:28:59;-0.90;99.90
5457;DHT22;2751;49.802;9.944;2022-12-16T17:31:43;-1.00;99.90
5457;DHT22;2751;49.802;9.944;2022-12-16T17:34:29;-1.00;99.90
5457;DHT22;2751;49.802;9.944;2022-12-16T17:37:13;-1.10;99.90
5457;DHT22;2751;49.802;9.944;2022-12-16T17:39:58;-1.00;99.90
5457;DHT22;2751;49.802;9.944;2022-12-16T17:42:42;-1.20;99.90
5457;DHT22;2751;49.802;9.944;2022-12-16T17:45:26;-1.30;99.90
5457;DHT22;2751;49.802;9.944;2022-12-16T17:48:16;-1.00;99.90
5457;DHT22;2751;49.802;9.944;2022-12-16T17:51:02;-1.40;99.90
5457;DHT22;2751;49.802;9.944;2022-12-16T17:53:43;-1.50;99.90
5457;DHT22;2751;49.802;9.944;2022-12-16T17:56:27;-1.50;99.90
5457;DHT22;2751;49.802;9.944;2022-12-16T17:59:12;-1.60;99.90
5457;DHT22;2751;49.802;9.944;2022-12-16T18:01:56;-1.70;99.90
5457;DHT22;2751;49.802;9.944;2022-12-16T18:04:40;-1.70;99.90
5457;DHT22;2751;49.802;9.944;2022-12-16T18:07:25;-1.90;99.90
5457;DHT22;2751;49.802;9.944;2022-12-16T18:10:10;-1.70;99.90
5457;DHT22;2751;49.802;9.944;2022-12-16T18:12:54;-1.90;99.90